createdAt,value
2023-05-09T00:01:20.628Z,13.40
2023-05-09T00:03:47.568Z,13.40
2023-05-09T00:06:15.346Z,13.40
2023-05-09T00:08:42.023Z,13.30
2023-05-09T00:11:08.610Z,13.30
2023-05-09T00:13:35.751Z,13.20
2023-05-09T00:16:03.464Z,13.20
2023-05-09T00:18:31.107Z,13.30
2023-05-09T00:20:57.830Z,13.20
2023-05-09T00:23:24.466Z,13.10
2023-05-09T00:25:51.055Z,13.10
2023-05-09T00:28:17.662Z,13.10
2023-05-09T00:30:44.484Z,13.00
2023-05-09T00:33:11.271Z,13.20
2023-05-09T00:35:37.919Z,13.30
2023-05-09T00:38:04.538Z,13.20
2023-05-09T00:40:31.449Z,13.00
2023-05-09T00:42:59.359Z,13.00
2023-05-09T00:45:26.060Z,13.10
2023-05-09T00:47:52.807Z,13.20
2023-05-09T00:50:19.544Z,13.10
2023-05-09T00:52:46.376Z,13.00
2023-05-09T00:55:13.523Z,13.00
2023-05-09T00:57:40.408Z,13.10
2023-05-09T01:00:12.871Z,13.10
2023-05-09T01:02:43.994Z,13.10
2023-05-09T01:05:11.570Z,13.00
2023-05-09T01:07:43.207Z,13.00
2023-05-09T01:10:19.023Z,13.00
2023-05-09T01:12:48.237Z,13.00
2023-05-09T01:15:18.596Z,12.90
2023-05-09T01:17:57.320Z,13.00
2023-05-09T01:20:28.580Z,12.90
2023-05-09T01:23:04.038Z,13.00
2023-05-09T01:25:49.231Z,12.70
2023-05-09T01:28:24.886Z,12.60
2023-05-09T01:30:51.805Z,12.70
2023-05-09T01:33:19.193Z,12.80
2023-05-09T01:35:53.809Z,12.70
2023-05-09T01:38:22.046Z,12.70
2023-05-09T01:40:50.197Z,12.70
2023-05-09T01:43:18.133Z,12.60
2023-05-09T01:45:45.303Z,12.60
2023-05-09T01:48:12.810Z,12.70
2023-05-09T01:50:39.855Z,12.60
2023-05-09T01:53:06.634Z,12.60
2023-05-09T01:55:34.202Z,12.70
2023-05-09T01:58:01.081Z,12.60
2023-05-09T02:00:27.956Z,12.60
2023-05-09T02:02:55.489Z,12.60
2023-05-09T02:05:23.422Z,12.70
2023-05-09T02:07:50.097Z,12.70
2023-05-09T02:10:17.088Z,12.80
2023-05-09T02:12:43.716Z,12.80
2023-05-09T02:15:10.686Z,12.70
2023-05-09T02:17:37.895Z,12.70
2023-05-09T02:20:05.353Z,12.70
2023-05-09T02:22:32.133Z,12.70
2023-05-09T02:24:58.936Z,12.60
2023-05-09T02:27:26.186Z,12.40
2023-05-09T02:29:55.842Z,12.50
2023-05-09T02:32:23.936Z,12.40
2023-05-09T02:34:52.194Z,12.40
2023-05-09T02:37:18.843Z,12.40
2023-05-09T02:39:45.502Z,12.30
2023-05-09T02:42:13.929Z,12.20
2023-05-09T02:44:40.801Z,12.20
2023-05-09T02:47:07.509Z,12.20
2023-05-09T02:49:34.473Z,12.20
2023-05-09T02:52:01.484Z,12.20
2023-05-09T02:54:28.301Z,12.20
2023-05-09T02:56:54.905Z,12.30
2023-05-09T02:59:21.494Z,12.30
2023-05-09T03:01:48.188Z,12.20
2023-05-09T03:04:14.903Z,12.10
2023-05-09T03:06:41.597Z,12.10
2023-05-09T03:09:08.269Z,12.10
2023-05-09T03:11:36.677Z,12.10
2023-05-09T03:14:03.760Z,11.90
2023-05-09T03:16:30.934Z,12.00
2023-05-09T03:18:57.537Z,12.00
2023-05-09T03:21:24.170Z,12.00
2023-05-09T03:23:50.835Z,12.00
2023-05-09T03:26:17.519Z,12.10
2023-05-09T03:28:44.141Z,12.10
2023-05-09T03:31:10.787Z,12.10
2023-05-09T03:33:37.394Z,12.10
2023-05-09T03:36:05.107Z,12.10
2023-05-09T03:38:31.824Z,12.10
2023-05-09T03:40:58.499Z,11.90
2023-05-09T03:43:25.279Z,11.90
2023-05-09T03:45:51.849Z,12.00
2023-05-09T03:48:18.544Z,12.00
2023-05-09T03:50:45.400Z,12.10
2023-05-09T03:53:12.053Z,11.90
2023-05-09T03:55:38.642Z,11.90
2023-05-09T03:58:05.435Z,11.90
2023-05-09T04:00:32.097Z,11.80
2023-05-09T04:02:58.800Z,11.80
2023-05-09T04:05:27.023Z,11.70
2023-05-09T04:07:53.609Z,11.80
2023-05-09T04:10:20.227Z,11.80
2023-05-09T04:12:46.838Z,11.80
2023-05-09T04:15:13.908Z,11.70
2023-05-09T04:17:40.771Z,11.80
2023-05-09T04:20:08.253Z,11.90
2023-05-09T04:22:34.855Z,11.90
2023-05-09T04:25:01.979Z,12.00
2023-05-09T04:27:28.870Z,11.90
2023-05-09T04:29:55.569Z,11.90
2023-05-09T04:32:23.200Z,11.70
2023-05-09T04:34:49.815Z,11.70
2023-05-09T04:37:17.106Z,11.80
2023-05-09T04:39:43.693Z,12.00
2023-05-09T04:42:10.708Z,12.00
2023-05-09T04:44:37.284Z,12.00
2023-05-09T04:47:03.885Z,12.20
2023-05-09T04:49:30.594Z,12.10
2023-05-09T04:51:57.201Z,12.00
2023-05-09T04:54:23.822Z,12.00
2023-05-09T04:56:50.823Z,12.00
2023-05-09T04:59:17.500Z,12.00
2023-05-09T05:01:44.255Z,11.90
2023-05-09T05:04:10.998Z,11.90
2023-05-09T05:06:37.695Z,12.00
2023-05-09T05:09:05.066Z,12.10
2023-05-09T05:11:31.695Z,12.10
2023-05-09T05:13:58.341Z,12.10
2023-05-09T05:16:24.988Z,12.10
2023-05-09T05:18:51.630Z,12.20
2023-05-09T05:21:18.323Z,12.30
2023-05-09T05:23:45.287Z,12.40
2023-05-09T05:26:11.886Z,12.50
2023-05-09T05:28:38.632Z,12.50
2023-05-09T05:31:05.346Z,12.60
2023-05-09T05:33:31.951Z,12.70
2023-05-09T05:35:58.565Z,12.60
2023-05-09T05:38:25.281Z,12.60
2023-05-09T05:40:51.876Z,12.50
2023-05-09T05:43:18.547Z,12.50
2023-05-09T05:45:45.188Z,12.60
2023-05-09T05:48:11.843Z,12.70
2023-05-09T05:50:38.443Z,12.70
2023-05-09T05:53:05.159Z,12.70
2023-05-09T05:55:31.822Z,12.80
2023-05-09T05:57:58.392Z,13.10
2023-05-09T06:00:25.290Z,12.80
2023-05-09T06:02:52.003Z,13.00
2023-05-09T06:05:18.908Z,13.10
2023-05-09T06:07:45.578Z,13.10
2023-05-09T06:10:12.149Z,13.10
2023-05-09T06:12:38.753Z,13.20
2023-05-09T06:15:05.799Z,13.20
2023-05-09T06:17:32.386Z,13.20
2023-05-09T06:19:59.054Z,13.40
2023-05-09T06:22:25.591Z,13.50
2023-05-09T06:24:52.279Z,13.50
2023-05-09T06:27:18.927Z,13.60
2023-05-09T06:29:45.604Z,13.70
2023-05-09T06:32:12.296Z,13.80
2023-05-09T06:34:38.882Z,14.00
2023-05-09T06:37:05.457Z,14.10
2023-05-09T06:39:32.113Z,14.20
2023-05-09T06:41:58.678Z,14.40
2023-05-09T06:44:25.337Z,14.50
2023-05-09T06:46:51.923Z,14.50
2023-05-09T06:49:18.594Z,14.60
2023-05-09T06:51:45.244Z,14.60
2023-05-09T06:54:11.832Z,14.80
2023-05-09T06:56:38.421Z,14.80
2023-05-09T06:59:05.093Z,14.80
2023-05-09T07:01:31.787Z,14.80
2023-05-09T07:03:59.224Z,15.10
2023-05-09T07:06:25.851Z,14.90
2023-05-09T07:08:52.484Z,15.00
2023-05-09T07:11:19.153Z,14.90
2023-05-09T07:13:45.873Z,14.80
2023-05-09T07:16:12.591Z,14.70
2023-05-09T07:18:39.244Z,14.80
2023-05-09T07:21:06.279Z,14.90
2023-05-09T07:23:32.882Z,15.10
2023-05-09T07:25:59.513Z,15.20
2023-05-09T07:28:26.223Z,15.20
2023-05-09T07:30:55.235Z,15.30
2023-05-09T07:33:21.921Z,15.30
2023-05-09T07:35:48.499Z,15.40
2023-05-09T07:38:16.671Z,15.40
2023-05-09T07:40:43.352Z,15.40
2023-05-09T07:43:09.949Z,15.60
2023-05-09T07:45:36.637Z,15.70
2023-05-09T07:48:03.364Z,15.90
2023-05-09T07:50:30.326Z,16.00
2023-05-09T07:52:56.979Z,16.00
2023-05-09T07:55:23.643Z,15.90
2023-05-09T07:57:50.366Z,15.80
2023-05-09T08:00:17.319Z,16.00
2023-05-09T08:02:44.049Z,15.90
2023-05-09T08:05:14.125Z,15.90
2023-05-09T08:07:41.108Z,16.00
2023-05-09T08:10:08.581Z,16.20
2023-05-09T08:12:35.306Z,16.30
2023-05-09T08:15:02.428Z,16.30
2023-05-09T08:17:29.201Z,15.90
2023-05-09T08:19:55.853Z,15.90
2023-05-09T08:22:22.617Z,16.00
2023-05-09T08:24:49.249Z,16.10
2023-05-09T08:27:15.943Z,15.90
2023-05-09T08:29:43.173Z,15.80
2023-05-09T08:32:09.859Z,15.90
2023-05-09T08:34:36.531Z,15.90
2023-05-09T08:37:03.971Z,16.00
2023-05-09T08:39:31.040Z,16.10
2023-05-09T08:42:01.522Z,16.30
2023-05-09T08:44:29.357Z,16.40
2023-05-09T08:46:58.401Z,16.60
2023-05-09T08:49:25.608Z,16.70
2023-05-09T08:51:52.390Z,17.00
2023-05-09T08:54:20.773Z,17.10
2023-05-09T08:56:49.935Z,17.10
2023-05-09T08:59:17.535Z,17.20
2023-05-09T09:01:44.340Z,17.20
2023-05-09T09:04:14.023Z,17.30
2023-05-09T09:06:40.872Z,17.40
2023-05-09T09:09:11.389Z,17.60
2023-05-09T09:11:38.960Z,17.60
2023-05-09T09:14:13.506Z,17.60
2023-05-09T09:16:41.546Z,17.60
2023-05-09T09:19:11.482Z,17.80
2023-05-09T09:21:39.332Z,17.90
2023-05-09T09:24:07.693Z,18.00
2023-05-09T09:26:34.296Z,18.10
2023-05-09T09:29:01.147Z,18.20
2023-05-09T09:31:31.430Z,18.10
2023-05-09T09:34:01.755Z,18.20
2023-05-09T09:36:29.379Z,18.30
2023-05-09T09:38:56.712Z,18.50
2023-05-09T09:41:29.570Z,18.50
2023-05-09T09:43:58.184Z,18.60
2023-05-09T09:46:25.617Z,18.90
2023-05-09T09:48:56.641Z,19.20
2023-05-09T09:51:27.459Z,19.60
2023-05-09T09:53:54.027Z,20.20
2023-05-09T09:56:22.152Z,20.90
2023-05-09T09:58:48.828Z,21.90
2023-05-09T10:01:16.643Z,22.80
2023-05-09T10:03:45.058Z,23.60
2023-05-09T10:06:12.673Z,24.40
2023-05-09T10:08:39.879Z,24.40
2023-05-09T10:11:07.277Z,24.50
2023-05-09T10:13:34.661Z,24.70
2023-05-09T10:16:01.821Z,24.90
2023-05-09T10:18:29.953Z,25.40
2023-05-09T10:20:57.430Z,25.80
2023-05-09T10:23:24.779Z,25.50
2023-05-09T10:25:57.631Z,25.60
2023-05-09T10:28:27.823Z,25.30
2023-05-09T10:30:58.187Z,25.10
2023-05-09T10:33:27.932Z,25.80
2023-05-09T10:35:55.628Z,26.20
2023-05-09T10:38:22.483Z,26.10
2023-05-09T10:40:49.461Z,26.20
2023-05-09T10:43:16.630Z,25.70
2023-05-09T10:45:43.615Z,25.90
2023-05-09T10:48:11.349Z,25.60
2023-05-09T10:50:40.165Z,25.70
2023-05-09T10:53:07.515Z,26.30
2023-05-09T10:55:52.930Z,26.30
2023-05-09T10:58:24.932Z,26.60
2023-05-09T11:00:52.150Z,26.70
2023-05-09T11:03:19.438Z,26.40
2023-05-09T11:05:47.489Z,26.10
2023-05-09T11:08:20.154Z,25.60
2023-05-09T11:10:46.982Z,25.30
2023-05-09T11:13:13.638Z,25.00
2023-05-09T11:15:58.964Z,24.80
2023-05-09T11:18:25.553Z,24.90
2023-05-09T11:20:52.692Z,25.40
2023-05-09T11:23:19.795Z,25.00
2023-05-09T11:25:47.771Z,24.70
2023-05-09T11:28:30.628Z,25.20
2023-05-09T11:31:16.513Z,25.10
2023-05-09T11:33:45.005Z,24.90
2023-05-09T11:36:20.716Z,24.90
2023-05-09T11:38:47.613Z,24.00
2023-05-09T11:41:14.621Z,24.20
2023-05-09T11:43:42.530Z,24.70
2023-05-09T11:46:09.165Z,24.60
2023-05-09T11:48:39.570Z,24.40
2023-05-09T11:51:07.079Z,24.10
2023-05-09T11:53:33.749Z,24.20
2023-05-09T11:56:04.242Z,23.70
2023-05-09T11:58:31.102Z,23.50
2023-05-09T12:00:58.075Z,23.30
2023-05-09T12:03:25.122Z,23.60
2023-05-09T12:05:51.845Z,23.80
2023-05-09T12:08:18.545Z,24.10
2023-05-09T12:10:45.375Z,23.70
2023-05-09T12:13:12.070Z,23.30
2023-05-09T12:15:38.875Z,23.30
2023-05-09T12:18:06.831Z,23.30
2023-05-09T12:20:43.670Z,23.50
2023-05-09T12:23:11.604Z,23.70
2023-05-09T12:25:38.388Z,23.70
2023-05-09T12:28:05.376Z,23.60
2023-05-09T12:30:32.527Z,23.40
2023-05-09T12:32:59.250Z,23.70
2023-05-09T12:35:25.888Z,24.00
2023-05-09T12:37:57.442Z,24.00
2023-05-09T12:40:24.318Z,24.30
2023-05-09T12:42:53.708Z,24.40
2023-05-09T12:45:20.466Z,24.50
2023-05-09T12:47:51.307Z,24.60
2023-05-09T12:50:17.994Z,24.60
2023-05-09T12:53:02.044Z,24.50
2023-05-09T12:55:31.132Z,24.20
2023-05-09T12:58:02.168Z,24.30
2023-05-09T13:00:29.221Z,23.70
2023-05-09T13:02:56.064Z,23.20
2023-05-09T13:05:23.310Z,23.30
2023-05-09T13:07:56.525Z,23.30
2023-05-09T13:10:23.860Z,23.30
2023-05-09T13:12:51.416Z,23.60
2023-05-09T13:15:20.113Z,23.60
2023-05-09T13:17:50.952Z,23.50
2023-05-09T13:20:18.682Z,23.20
2023-05-09T13:22:46.083Z,23.00
2023-05-09T13:25:12.917Z,22.90
2023-05-09T13:27:39.603Z,22.90
2023-05-09T13:30:07.712Z,23.20
2023-05-09T13:32:34.902Z,23.30
2023-05-09T13:35:01.559Z,23.40
2023-05-09T13:37:28.350Z,23.30
2023-05-09T13:39:55.372Z,23.30
2023-05-09T13:42:21.948Z,23.20
2023-05-09T13:44:48.523Z,23.00
2023-05-09T13:47:15.089Z,22.60
2023-05-09T13:49:41.767Z,22.60
2023-05-09T13:52:08.982Z,22.70
2023-05-09T13:54:35.632Z,22.70
2023-05-09T13:57:03.514Z,22.80
2023-05-09T13:59:30.974Z,22.80
2023-05-09T14:01:59.623Z,22.80
2023-05-09T14:04:27.038Z,22.60
2023-05-09T14:06:54.213Z,22.90
2023-05-09T14:09:22.211Z,23.00
2023-05-09T14:11:51.453Z,23.20
2023-05-09T14:14:18.762Z,22.90
2023-05-09T14:16:45.820Z,22.90
2023-05-09T14:19:12.731Z,22.90
2023-05-09T14:21:39.472Z,23.00
2023-05-09T14:24:06.293Z,23.00
2023-05-09T14:26:32.946Z,23.00
2023-05-09T14:28:59.527Z,22.90
2023-05-09T14:31:26.182Z,23.00
2023-05-09T14:33:52.866Z,23.40
2023-05-09T14:36:19.637Z,23.50
2023-05-09T14:38:46.873Z,23.30
2023-05-09T14:41:13.759Z,22.90
2023-05-09T14:43:40.438Z,22.90
2023-05-09T14:46:07.079Z,23.10
2023-05-09T14:48:33.823Z,23.30
2023-05-09T14:51:00.689Z,23.30
2023-05-09T14:53:28.590Z,23.30
2023-05-09T14:55:55.890Z,23.30
2023-05-09T14:58:22.870Z,23.50
2023-05-09T15:00:49.516Z,24.20
2023-05-09T15:03:16.115Z,24.90
2023-05-09T15:05:42.747Z,25.50
2023-05-09T15:08:09.326Z,26.90
2023-05-09T15:10:35.936Z,26.60
2023-05-09T15:13:05.735Z,27.40
2023-05-09T15:15:32.674Z,28.10
2023-05-09T15:18:00.799Z,29.40
2023-05-09T15:20:27.494Z,30.00
2023-05-09T15:22:54.133Z,29.40
2023-05-09T15:25:21.834Z,29.00
2023-05-09T15:27:50.291Z,29.20
2023-05-09T15:30:17.063Z,29.50
2023-05-09T15:32:44.011Z,29.00
2023-05-09T15:35:10.888Z,28.20
2023-05-09T15:37:37.748Z,26.70
2023-05-09T15:40:04.698Z,26.80
2023-05-09T15:42:31.317Z,27.40
2023-05-09T15:44:57.922Z,27.90
2023-05-09T15:47:24.575Z,27.80
2023-05-09T15:49:51.185Z,26.90
2023-05-09T15:52:18.135Z,25.80
2023-05-09T15:54:45.332Z,25.20
2023-05-09T15:57:12.575Z,24.70
2023-05-09T15:59:39.357Z,24.30
2023-05-09T16:02:06.409Z,23.50
2023-05-09T16:04:33.612Z,23.00
2023-05-09T16:07:02.333Z,22.80
2023-05-09T16:09:29.198Z,22.80
2023-05-09T16:11:56.328Z,22.70
2023-05-09T16:14:23.160Z,22.30
2023-05-09T16:16:51.547Z,22.00
2023-05-09T16:19:18.175Z,21.90
2023-05-09T16:21:48.321Z,21.80
2023-05-09T16:24:15.010Z,21.70
2023-05-09T16:26:41.650Z,21.60
2023-05-09T16:29:08.296Z,21.60
2023-05-09T16:31:35.879Z,21.50
2023-05-09T16:34:02.974Z,21.60
2023-05-09T16:36:30.226Z,21.50
2023-05-09T16:38:56.925Z,21.40
2023-05-09T16:41:23.628Z,21.40
2023-05-09T16:43:50.187Z,21.20
2023-05-09T16:46:16.904Z,21.00
2023-05-09T16:48:43.621Z,20.90
2023-05-09T16:51:10.227Z,20.90
2023-05-09T16:53:36.801Z,20.80
2023-05-09T16:56:03.896Z,20.70
2023-05-09T16:58:30.604Z,20.60
2023-05-09T17:00:58.021Z,20.70
2023-05-09T17:03:24.652Z,20.70
2023-05-09T17:05:51.238Z,20.70
2023-05-09T17:08:17.876Z,20.70
2023-05-09T17:10:44.470Z,20.80
2023-05-09T17:13:11.096Z,20.70
2023-05-09T17:15:38.401Z,20.60
2023-05-09T17:18:05.172Z,20.50
2023-05-09T17:20:31.866Z,20.60
2023-05-09T17:22:58.447Z,20.50
2023-05-09T17:25:25.019Z,20.40
2023-05-09T17:27:51.763Z,20.40
2023-05-09T17:30:20.561Z,20.40
2023-05-09T17:32:48.896Z,20.20
2023-05-09T17:35:15.710Z,20.00
2023-05-09T17:37:42.320Z,20.10
2023-05-09T17:40:09.135Z,20.00
2023-05-09T17:42:35.832Z,19.90
2023-05-09T17:45:02.671Z,19.80
2023-05-09T17:47:29.300Z,19.80
2023-05-09T17:49:55.933Z,19.90
2023-05-09T17:52:22.633Z,19.90
2023-05-09T17:54:49.380Z,19.90
2023-05-09T17:57:16.658Z,19.60
2023-05-09T17:59:43.309Z,19.60
2023-05-09T18:02:10.286Z,19.70
2023-05-09T18:04:37.007Z,19.60
2023-05-09T18:07:04.047Z,19.60
2023-05-09T18:09:30.998Z,19.50
2023-05-09T18:11:58.981Z,19.40
2023-05-09T18:14:25.618Z,19.30
2023-05-09T18:16:52.519Z,19.20
2023-05-09T18:19:19.194Z,19.30
2023-05-09T18:21:46.388Z,19.40
2023-05-09T18:24:14.351Z,19.30
2023-05-09T18:26:42.163Z,19.30
2023-05-09T18:29:09.525Z,19.20
2023-05-09T18:31:38.782Z,19.30
2023-05-09T18:34:05.945Z,19.30
2023-05-09T18:36:32.611Z,19.20
2023-05-09T18:38:59.482Z,19.20
2023-05-09T18:41:26.425Z,19.10
2023-05-09T18:43:53.163Z,19.10
2023-05-09T18:46:22.770Z,19.00
2023-05-09T18:48:50.489Z,19.00
2023-05-09T18:51:17.742Z,18.90
2023-05-09T18:53:44.568Z,18.80
2023-05-09T18:56:11.196Z,18.80
2023-05-09T18:58:38.119Z,18.70
2023-05-09T19:01:04.865Z,18.60
2023-05-09T19:03:31.671Z,18.60
2023-05-09T19:05:58.904Z,18.70
2023-05-09T19:08:26.249Z,18.70
2023-05-09T19:10:52.833Z,18.70
2023-05-09T19:13:19.638Z,18.70
2023-05-09T19:15:46.982Z,18.60
2023-05-09T19:18:14.219Z,18.60
2023-05-09T19:20:40.840Z,18.50
2023-05-09T19:23:07.416Z,18.40
2023-05-09T19:25:34.123Z,18.50
2023-05-09T19:28:00.740Z,18.40
2023-05-09T19:30:27.528Z,18.30
2023-05-09T19:32:54.175Z,18.20
2023-05-09T19:35:20.853Z,18.20
2023-05-09T19:37:47.471Z,18.20
2023-05-09T19:40:14.731Z,18.10
2023-05-09T19:42:41.930Z,18.10
2023-05-09T19:45:08.900Z,18.00
2023-05-09T19:47:35.590Z,18.00
2023-05-09T19:50:02.406Z,18.00
2023-05-09T19:52:29.857Z,18.00
2023-05-09T19:54:56.444Z,17.90
2023-05-09T19:57:23.096Z,18.00
2023-05-09T19:59:49.723Z,18.00
2023-05-09T20:02:16.307Z,18.00
2023-05-09T20:04:49.671Z,17.90
2023-05-09T20:07:16.914Z,18.00
2023-05-09T20:09:43.625Z,17.90
2023-05-09T20:12:10.376Z,17.80
2023-05-09T20:14:37.403Z,17.70
2023-05-09T20:17:05.248Z,17.70
2023-05-09T20:19:33.127Z,17.80
2023-05-09T20:22:02.719Z,17.80
2023-05-09T20:24:31.267Z,17.80
2023-05-09T20:26:57.951Z,17.60
2023-05-09T20:29:24.958Z,17.50
2023-05-09T20:31:51.734Z,17.60
2023-05-09T20:34:19.598Z,17.50
2023-05-09T20:36:46.753Z,17.40
2023-05-09T20:39:17.609Z,17.40
2023-05-09T20:41:44.960Z,17.30
2023-05-09T20:44:11.664Z,17.30
2023-05-09T20:46:38.542Z,17.40
2023-05-09T20:49:05.164Z,17.30
2023-05-09T20:51:31.765Z,17.20
2023-05-09T20:53:58.538Z,17.10
2023-05-09T20:56:26.361Z,17.10
2023-05-09T20:58:52.952Z,17.00
2023-05-09T21:01:19.650Z,17.10
2023-05-09T21:03:46.384Z,17.10
2023-05-09T21:06:13.077Z,17.00
2023-05-09T21:08:40.647Z,17.00
2023-05-09T21:11:07.445Z,17.00
2023-05-09T21:13:34.119Z,17.00
2023-05-09T21:16:00.962Z,17.10
2023-05-09T21:18:27.587Z,17.10
2023-05-09T21:23:21.823Z,17.00
2023-05-09T21:25:48.438Z,17.00
2023-05-09T21:28:15.584Z,16.90
2023-05-09T21:30:42.244Z,16.90
2023-05-09T21:33:08.924Z,16.80
2023-05-09T21:35:36.093Z,16.70
2023-05-09T21:38:02.684Z,16.50
2023-05-09T21:40:29.267Z,16.50
2023-05-09T21:42:55.924Z,16.60
2023-05-09T21:45:22.730Z,16.60
2023-05-09T21:47:49.592Z,16.60
2023-05-09T21:50:16.657Z,16.50
2023-05-09T21:52:43.452Z,16.60
2023-05-09T21:55:10.117Z,16.50
2023-05-09T21:57:36.723Z,16.40
2023-05-09T22:00:05.497Z,16.40
2023-05-09T22:02:32.519Z,16.40
2023-05-09T22:04:59.419Z,16.40
2023-05-09T22:07:29.069Z,16.40
2023-05-09T22:09:55.631Z,16.40
2023-05-09T22:12:22.956Z,16.40
2023-05-09T22:14:56.372Z,16.40
2023-05-09T22:17:24.246Z,16.40
2023-05-09T22:19:50.915Z,16.40
2023-05-09T22:22:17.589Z,16.40
2023-05-09T22:24:44.193Z,16.40
2023-05-09T22:27:11.003Z,16.40
2023-05-09T22:29:39.468Z,16.40
2023-05-09T22:32:08.341Z,16.40
2023-05-09T22:34:35.611Z,16.40
2023-05-09T22:37:02.209Z,16.40
2023-05-09T22:39:29.397Z,16.30
2023-05-09T22:41:55.956Z,16.30
2023-05-09T22:44:22.607Z,16.40
2023-05-09T22:46:49.425Z,16.40
2023-05-09T22:49:16.056Z,16.40
2023-05-09T22:51:42.670Z,16.20
2023-05-09T22:54:09.260Z,16.20
2023-05-09T22:56:36.332Z,16.10
2023-05-09T22:59:02.931Z,16.10
2023-05-09T23:01:29.563Z,16.20
2023-05-09T23:03:56.240Z,16.10
2023-05-09T23:06:22.809Z,16.10
2023-05-09T23:08:49.470Z,16.10
2023-05-09T23:11:16.037Z,16.10
2023-05-09T23:13:42.814Z,16.20
2023-05-09T23:16:09.478Z,16.10
2023-05-09T23:18:36.354Z,16.00
2023-05-09T23:21:02.924Z,16.00
2023-05-09T23:23:29.565Z,16.00
2023-05-09T23:25:56.138Z,16.00
2023-05-09T23:28:25.052Z,16.00
2023-05-09T23:30:53.187Z,16.00
2023-05-09T23:33:19.978Z,16.00
2023-05-09T23:35:47.434Z,16.10
2023-05-09T23:38:14.021Z,16.10
2023-05-09T23:40:43.645Z,16.10
2023-05-09T23:43:10.315Z,16.10
2023-05-09T23:45:36.927Z,16.00
2023-05-09T23:48:03.711Z,16.00
2023-05-09T23:50:30.541Z,16.00
2023-05-09T23:52:59.766Z,15.90
2023-05-09T23:55:26.388Z,15.80
2023-05-09T23:57:52.956Z,15.50
